Impacts TAF Board
For situational awareness. Not to be used for flight planning purposes.
IDs:

KSTL - St Louis/Lambert Int, MO, US

Issued at 1720 UTC 24 Sep 2018
Updated at 1739 UTC 24 Sep 2018
Potential Impact None Slight Moderate High
Time<<25/06Z 25/07Z 25/08Z 25/09Z 25/10Z 25/11Z 25/12Z 25/13Z 25/14Z 25/15Z 25/16Z 25/17Z 25/18Z>>
Type PRVL PRVL PRVL PRVL PRVL PRVL PRVL PRVL PRVL PRVL PRVL PRVL PRVL
VIS >6 >6 >6 5 5 5 5 5 5 5 5 >6 >6
CIG 30 30 30 7 7 7 7 7 7 7 7 12 12
Cover OVC OVC OVC OVC OVC OVC OVC OVC OVC OVC OVC BKN BKN
FltCat MVFR MVFR MVFR IFR IFR IFR IFR IFR IFR IFR IFR MVFR MVFR
WX -- -- -- BR VCSH BR VCSH BR VCSH BR VCSH BR VCSH BR VCSH BR VCSH BR VCSH VCTS VCTS
WDir 140 140 140 180 180 180 180 180 180 180 180 200 200
WSpd 6 6 6 6 6 6 6 6 6 6 6 7 7
WGst -- -- -- -- -- -- -- -- -- -- -- -- --
Raw TAF
KSTL 241720Z 2418/2524 13008KT P6SM BKN013
  FM250000 14006KT P6SM OVC030
  FM250900 18006KT 5SM BR VCSH OVC007
  FM251700 20007KT P6SM VCTS BKN012CB


METAR Board
Radar Display
Forecast Discussion
For situational awareness. Not to be used for flight planning purposes.